sensor_id;sensor_type;location;lat;lon;timestamp;P1;durP1;ratioP1;P2;durP2;ratioP2
21289;SDS011;10804;48.988;2.408;2023-03-01T00:01:41;0.20;;;0.20;;
21289;SDS011;10804;48.988;2.408;2023-03-01T00:04:08;0.20;;;0.20;;
21289;SDS011;10804;48.988;2.408;2023-03-01T00:06:35;0.20;;;0.20;;
21289;SDS011;10804;48.988;2.408;2023-03-01T00:09:03;0.20;;;0.20;;
21289;SDS011;10804;48.988;2.408;2023-03-01T00:11:31;0.10;;;0.10;;
21289;SDS011;10804;48.988;2.408;2023-03-01T00:14:00;0.20;;;0.20;;
21289;SDS011;10804;48.988;2.408;2023-03-01T00:16:31;0.20;;;0.20;;
21289;SDS011;10804;48.988;2.408;2023-03-01T00:19:01;0.10;;;0.10;;
21289;SDS011;10804;48.988;2.408;2023-03-01T00:21:29;0.13;;;0.13;;
21289;SDS011;10804;48.988;2.408;2023-03-01T00:23:57;0.13;;;0.13;;
21289;SDS011;10804;48.988;2.408;2023-03-01T00:26:25;0.20;;;0.20;;
21289;SDS011;10804;48.988;2.408;2023-03-01T00:28:53;0.20;;;0.20;;
21289;SDS011;10804;48.988;2.408;2023-03-01T00:31:22;0.20;;;0.20;;
21289;SDS011;10804;48.988;2.408;2023-03-01T00:33:52;0.20;;;0.20;;
21289;SDS011;10804;48.988;2.408;2023-03-01T00:36:25;0.13;;;0.13;;
21289;SDS011;10804;48.988;2.408;2023-03-01T00:38:54;0.20;;;0.20;;
21289;SDS011;10804;48.988;2.408;2023-03-01T00:41:22;0.20;;;0.20;;
21289;SDS011;10804;48.988;2.408;2023-03-01T00:43:53;0.20;;;0.20;;
21289;SDS011;10804;48.988;2.408;2023-03-01T00:46:21;0.20;;;0.20;;
21289;SDS011;10804;48.988;2.408;2023-03-01T00:48:50;0.20;;;0.20;;
21289;SDS011;10804;48.988;2.408;2023-03-01T00:51:18;0.20;;;0.20;;
21289;SDS011;10804;48.988;2.408;2023-03-01T00:53:49;0.20;;;0.20;;
21289;SDS011;10804;48.988;2.408;2023-03-01T00:56:18;0.10;;;0.10;;
21289;SDS011;10804;48.988;2.408;2023-03-01T00:58:46;0.20;;;0.20;;
21289;SDS011;10804;48.988;2.408;2023-03-01T01:01:14;0.20;;;0.20;;
21289;SDS011;10804;48.988;2.408;2023-03-01T01:03:46;0.20;;;0.20;;
21289;SDS011;10804;48.988;2.408;2023-03-01T01:06:18;0.20;;;0.20;;
21289;SDS011;10804;48.988;2.408;2023-03-01T01:08:48;0.20;;;0.20;;
21289;SDS011;10804;48.988;2.408;2023-03-01T01:11:18;0.20;;;0.20;;
21289;SDS011;10804;48.988;2.408;2023-03-01T01:13:46;0.20;;;0.20;;
21289;SDS011;10804;48.988;2.408;2023-03-01T01:16:14;0.20;;;0.20;;
21289;SDS011;10804;48.988;2.408;2023-03-01T01:18:43;0.13;;;0.13;;
21289;SDS011;10804;48.988;2.408;2023-03-01T01:21:11;0.20;;;0.20;;
21289;SDS011;10804;48.988;2.408;2023-03-01T01:23:40;0.10;;;0.10;;
21289;SDS011;10804;48.988;2.408;2023-03-01T01:26:11;0.17;;;0.17;;
21289;SDS011;10804;48.988;2.408;2023-03-01T01:28:40;0.20;;;0.20;;
21289;SDS011;10804;48.988;2.408;2023-03-01T01:31:07;0.10;;;0.10;;
21289;SDS011;10804;48.988;2.408;2023-03-01T01:33:35;0.10;;;0.10;;
21289;SDS011;10804;48.988;2.408;2023-03-01T01:36:03;0.17;;;0.17;;
21289;SDS011;10804;48.988;2.408;2023-03-01T01:38:31;0.20;;;0.20;;
21289;SDS011;10804;48.988;2.408;2023-03-01T01:40:59;0.20;;;0.20;;
21289;SDS011;10804;48.988;2.408;2023-03-01T01:43:28;0.20;;;0.20;;
21289;SDS011;10804;48.988;2.408;2023-03-01T01:45:57;0.20;;;0.20;;
21289;SDS011;10804;48.988;2.408;2023-03-01T01:48:29;0.20;;;0.20;;
21289;SDS011;10804;48.988;2.408;2023-03-01T01:51:07;0.20;;;0.20;;
21289;SDS011;10804;48.988;2.408;2023-03-01T01:53:39;0.10;;;0.10;;
21289;SDS011;10804;48.988;2.408;2023-03-01T01:56:09;0.20;;;0.20;;
21289;SDS011;10804;48.988;2.408;2023-03-01T01:58:41;0.20;;;0.20;;
21289;SDS011;10804;48.988;2.408;2023-03-01T02:01:10;0.20;;;0.20;;
21289;SDS011;10804;48.988;2.408;2023-03-01T02:03:39;0.20;;;0.20;;
21289;SDS011;10804;48.988;2.408;2023-03-01T02:06:12;0.20;;;0.20;;
21289;SDS011;10804;48.988;2.408;2023-03-01T02:08:42;0.20;;;0.20;;
21289;SDS011;10804;48.988;2.408;2023-03-01T02:11:10;0.20;;;0.20;;
21289;SDS011;10804;48.988;2.408;2023-03-01T02:13:42;0.10;;;0.10;;
21289;SDS011;10804;48.988;2.408;2023-03-01T02:16:11;0.20;;;0.20;;
21289;SDS011;10804;48.988;2.408;2023-03-01T02:18:41;0.20;;;0.20;;
21289;SDS011;10804;48.988;2.408;2023-03-01T02:21:13;0.13;;;0.13;;
21289;SDS011;10804;48.988;2.408;2023-03-01T02:23:52;0.20;;;0.20;;
21289;SDS011;10804;48.988;2.408;2023-03-01T02:26:23;0.20;;;0.20;;
21289;SDS011;10804;48.988;2.408;2023-03-01T02:29:00;0.20;;;0.20;;
21289;SDS011;10804;48.988;2.408;2023-03-01T02:31:27;0.20;;;0.20;;
21289;SDS011;10804;48.988;2.408;2023-03-01T02:34:12;0.20;;;0.20;;
21289;SDS011;10804;48.988;2.408;2023-03-01T02:36:43;0.20;;;0.20;;
21289;SDS011;10804;48.988;2.408;2023-03-01T02:39:14;0.20;;;0.20;;
21289;SDS011;10804;48.988;2.408;2023-03-01T02:41:45;0.20;;;0.20;;
21289;SDS011;10804;48.988;2.408;2023-03-01T02:44:16;0.20;;;0.20;;
21289;SDS011;10804;48.988;2.408;2023-03-01T02:46:44;0.20;;;0.20;;
21289;SDS011;10804;48.988;2.408;2023-03-01T02:49:20;0.20;;;0.20;;
21289;SDS011;10804;48.988;2.408;2023-03-01T02:51:52;0.20;;;0.20;;
21289;SDS011;10804;48.988;2.408;2023-03-01T02:54:28;0.20;;;0.20;;
21289;SDS011;10804;48.988;2.408;2023-03-01T02:57:01;0.20;;;0.20;;
21289;SDS011;10804;48.988;2.408;2023-03-01T02:59:32;0.20;;;0.20;;
21289;SDS011;10804;48.988;2.408;2023-03-01T03:02:06;0.20;;;0.20;;
21289;SDS011;10804;48.988;2.408;2023-03-01T03:04:33;0.20;;;0.20;;
21289;SDS011;10804;48.988;2.408;2023-03-01T03:07:01;0.20;;;0.20;;
21289;SDS011;10804;48.988;2.408;2023-03-01T03:09:28;0.20;;;0.20;;
21289;SDS011;10804;48.988;2.408;2023-03-01T03:11:56;0.20;;;0.20;;
21289;SDS011;10804;48.988;2.408;2023-03-01T03:14:23;0.20;;;0.20;;
21289;SDS011;10804;48.988;2.408;2023-03-01T03:16:52;0.20;;;0.20;;
21289;SDS011;10804;48.988;2.408;2023-03-01T03:19:20;0.20;;;0.20;;
21289;SDS011;10804;48.988;2.408;2023-03-01T03:21:47;0.20;;;0.20;;
21289;SDS011;10804;48.988;2.408;2023-03-01T03:24:15;0.20;;;0.20;;
21289;SDS011;10804;48.988;2.408;2023-03-01T03:26:43;0.20;;;0.20;;
21289;SDS011;10804;48.988;2.408;2023-03-01T03:29:10;0.20;;;0.20;;
21289;SDS011;10804;48.988;2.408;2023-03-01T03:31:37;0.20;;;0.20;;
21289;SDS011;10804;48.988;2.408;2023-03-01T03:34:06;0.20;;;0.20;;
21289;SDS011;10804;48.988;2.408;2023-03-01T03:36:33;0.20;;;0.20;;
21289;SDS011;10804;48.988;2.408;2023-03-01T03:39:00;0.20;;;0.20;;
21289;SDS011;10804;48.988;2.408;2023-03-01T03:41:28;0.20;;;0.20;;
21289;SDS011;10804;48.988;2.408;2023-03-01T03:43:55;0.20;;;0.20;;
21289;SDS011;10804;48.988;2.408;2023-03-01T03:46:22;0.20;;;0.20;;
21289;SDS011;10804;48.988;2.408;2023-03-01T03:48:49;0.20;;;0.20;;
21289;SDS011;10804;48.988;2.408;2023-03-01T03:51:18;0.20;;;0.20;;
21289;SDS011;10804;48.988;2.408;2023-03-01T03:53:48;0.20;;;0.20;;
21289;SDS011;10804;48.988;2.408;2023-03-01T03:56:15;0.20;;;0.20;;
21289;SDS011;10804;48.988;2.408;2023-03-01T03:58:43;0.20;;;0.20;;
21289;SDS011;10804;48.988;2.408;2023-03-01T04:01:10;0.20;;;0.20;;
21289;SDS011;10804;48.988;2.408;2023-03-01T04:03:37;0.10;;;0.10;;
21289;SDS011;10804;48.988;2.408;2023-03-01T04:06:05;0.20;;;0.20;;
21289;SDS011;10804;48.988;2.408;2023-03-01T04:08:34;0.20;;;0.20;;
21289;SDS011;10804;48.988;2.408;2023-03-01T04:11:02;0.20;;;0.20;;
21289;SDS011;10804;48.988;2.408;2023-03-01T04:13:52;0.20;;;0.20;;
21289;SDS011;10804;48.988;2.408;2023-03-01T04:16:21;0.20;;;0.20;;
21289;SDS011;10804;48.988;2.408;2023-03-01T04:18:49;0.20;;;0.20;;
21289;SDS011;10804;48.988;2.408;2023-03-01T04:21:16;0.20;;;0.20;;
21289;SDS011;10804;48.988;2.408;2023-03-01T04:23:47;0.20;;;0.20;;
21289;SDS011;10804;48.988;2.408;2023-03-01T04:26:18;0.20;;;0.20;;
21289;SDS011;10804;48.988;2.408;2023-03-01T04:28:46;0.20;;;0.20;;
21289;SDS011;10804;48.988;2.408;2023-03-01T04:31:16;0.20;;;0.20;;
21289;SDS011;10804;48.988;2.408;2023-03-01T04:33:47;0.20;;;0.20;;
21289;SDS011;10804;48.988;2.408;2023-03-01T04:36:17;0.20;;;0.20;;
21289;SDS011;10804;48.988;2.408;2023-03-01T04:38:46;0.20;;;0.20;;
21289;SDS011;10804;48.988;2.408;2023-03-01T04:41:14;0.20;;;0.20;;
21289;SDS011;10804;48.988;2.408;2023-03-01T04:43:43;0.20;;;0.20;;
21289;SDS011;10804;48.988;2.408;2023-03-01T04:46:11;0.20;;;0.20;;
21289;SDS011;10804;48.988;2.408;2023-03-01T04:48:40;0.20;;;0.20;;
21289;SDS011;10804;48.988;2.408;2023-03-01T04:51:08;0.20;;;0.20;;
21289;SDS011;10804;48.988;2.408;2023-03-01T04:53:39;0.20;;;0.20;;
21289;SDS011;10804;48.988;2.408;2023-03-01T04:56:08;0.20;;;0.20;;
21289;SDS011;10804;48.988;2.408;2023-03-01T04:58:39;0.20;;;0.20;;
21289;SDS011;10804;48.988;2.408;2023-03-01T05:01:09;0.20;;;0.20;;
21289;SDS011;10804;48.988;2.408;2023-03-01T05:03:41;0.20;;;0.20;;
21289;SDS011;10804;48.988;2.408;2023-03-01T05:06:09;0.20;;;0.20;;
21289;SDS011;10804;48.988;2.408;2023-03-01T05:08:38;0.20;;;0.20;;
21289;SDS011;10804;48.988;2.408;2023-03-01T05:11:06;0.20;;;0.20;;
21289;SDS011;10804;48.988;2.408;2023-03-01T05:13:36;0.20;;;0.20;;
21289;SDS011;10804;48.988;2.408;2023-03-01T05:16:05;0.10;;;0.10;;
21289;SDS011;10804;48.988;2.408;2023-03-01T05:18:36;0.20;;;0.20;;
21289;SDS011;10804;48.988;2.408;2023-03-01T05:21:05;0.20;;;0.20;;
21289;SDS011;10804;48.988;2.408;2023-03-01T05:23:34;0.20;;;0.20;;
21289;SDS011;10804;48.988;2.408;2023-03-01T05:26:02;0.20;;;0.20;;
21289;SDS011;10804;48.988;2.408;2023-03-01T05:28:31;0.20;;;0.20;;
21289;SDS011;10804;48.988;2.408;2023-03-01T05:31:00;0.20;;;0.20;;
21289;SDS011;10804;48.988;2.408;2023-03-01T05:33:28;0.20;;;0.20;;
21289;SDS011;10804;48.988;2.408;2023-03-01T05:35:59;0.20;;;0.20;;
21289;SDS011;10804;48.988;2.408;2023-03-01T05:38:27;0.30;;;0.30;;
21289;SDS011;10804;48.988;2.408;2023-03-01T05:40:54;0.20;;;0.20;;
21289;SDS011;10804;48.988;2.408;2023-03-01T05:43:21;0.13;;;0.13;;
21289;SDS011;10804;48.988;2.408;2023-03-01T05:45:48;0.20;;;0.20;;
21289;SDS011;10804;48.988;2.408;2023-03-01T05:48:17;0.20;;;0.20;;
21289;SDS011;10804;48.988;2.408;2023-03-01T05:50:45;0.20;;;0.20;;
21289;SDS011;10804;48.988;2.408;2023-03-01T05:53:13;0.20;;;0.20;;
21289;SDS011;10804;48.988;2.408;2023-03-01T05:55:42;0.20;;;0.20;;
21289;SDS011;10804;48.988;2.408;2023-03-01T05:58:10;0.20;;;0.20;;
21289;SDS011;10804;48.988;2.408;2023-03-01T06:00:39;0.20;;;0.20;;
21289;SDS011;10804;48.988;2.408;2023-03-01T06:03:09;0.20;;;0.20;;
21289;SDS011;10804;48.988;2.408;2023-03-01T06:05:38;0.20;;;0.20;;
21289;SDS011;10804;48.988;2.408;2023-03-01T06:08:06;0.20;;;0.20;;
21289;SDS011;10804;48.988;2.408;2023-03-01T06:10:35;0.20;;;0.20;;
21289;SDS011;10804;48.988;2.408;2023-03-01T06:13:03;0.20;;;0.20;;
21289;SDS011;10804;48.988;2.408;2023-03-01T06:15:30;0.20;;;0.20;;
21289;SDS011;10804;48.988;2.408;2023-03-01T06:17:57;0.20;;;0.20;;
21289;SDS011;10804;48.988;2.408;2023-03-01T06:20:25;0.20;;;0.20;;
21289;SDS011;10804;48.988;2.408;2023-03-01T06:22:55;0.20;;;0.20;;
21289;SDS011;10804;48.988;2.408;2023-03-01T06:25:24;0.20;;;0.20;;
21289;SDS011;10804;48.988;2.408;2023-03-01T06:27:53;0.20;;;0.20;;
21289;SDS011;10804;48.988;2.408;2023-03-01T06:30:21;0.20;;;0.20;;
21289;SDS011;10804;48.988;2.408;2023-03-01T06:32:50;0.20;;;0.20;;
21289;SDS011;10804;48.988;2.408;2023-03-01T06:35:18;0.20;;;0.20;;
21289;SDS011;10804;48.988;2.408;2023-03-01T06:37:46;0.20;;;0.20;;
21289;SDS011;10804;48.988;2.408;2023-03-01T06:40:16;0.20;;;0.20;;
21289;SDS011;10804;48.988;2.408;2023-03-01T06:42:47;0.20;;;0.20;;
21289;SDS011;10804;48.988;2.408;2023-03-01T06:45:16;0.20;;;0.20;;
21289;SDS011;10804;48.988;2.408;2023-03-01T06:47:44;0.20;;;0.20;;
21289;SDS011;10804;48.988;2.408;2023-03-01T06:50:11;0.20;;;0.20;;
21289;SDS011;10804;48.988;2.408;2023-03-01T06:52:40;0.20;;;0.20;;
21289;SDS011;10804;48.988;2.408;2023-03-01T06:55:09;0.20;;;0.20;;
21289;SDS011;10804;48.988;2.408;2023-03-01T06:57:38;0.20;;;0.20;;
21289;SDS011;10804;48.988;2.408;2023-03-01T07:00:06;0.20;;;0.20;;
21289;SDS011;10804;48.988;2.408;2023-03-01T07:02:34;0.20;;;0.20;;
21289;SDS011;10804;48.988;2.408;2023-03-01T07:05:03;0.20;;;0.20;;
21289;SDS011;10804;48.988;2.408;2023-03-01T07:07:31;0.20;;;0.20;;
21289;SDS011;10804;48.988;2.408;2023-03-01T07:09:58;0.20;;;0.20;;
21289;SDS011;10804;48.988;2.408;2023-03-01T07:12:26;0.20;;;0.20;;
21289;SDS011;10804;48.988;2.408;2023-03-01T07:14:54;0.20;;;0.20;;
21289;SDS011;10804;48.988;2.408;2023-03-01T07:17:22;0.20;;;0.20;;
21289;SDS011;10804;48.988;2.408;2023-03-01T07:19:49;0.20;;;0.20;;
21289;SDS011;10804;48.988;2.408;2023-03-01T07:22:16;0.20;;;0.20;;
21289;SDS011;10804;48.988;2.408;2023-03-01T07:24:44;0.20;;;0.20;;
21289;SDS011;10804;48.988;2.408;2023-03-01T07:27:11;0.20;;;0.20;;
21289;SDS011;10804;48.988;2.408;2023-03-01T07:29:38;0.20;;;0.20;;
21289;SDS011;10804;48.988;2.408;2023-03-01T07:32:07;0.30;;;0.30;;
21289;SDS011;10804;48.988;2.408;2023-03-01T07:34:35;0.20;;;0.20;;
21289;SDS011;10804;48.988;2.408;2023-03-01T07:37:02;0.20;;;0.20;;
21289;SDS011;10804;48.988;2.408;2023-03-01T07:39:29;0.20;;;0.20;;
21289;SDS011;10804;48.988;2.408;2023-03-01T07:41:56;0.20;;;0.20;;
21289;SDS011;10804;48.988;2.408;2023-03-01T07:44:24;0.20;;;0.20;;
21289;SDS011;10804;48.988;2.408;2023-03-01T07:46:51;0.20;;;0.20;;
21289;SDS011;10804;48.988;2.408;2023-03-01T07:49:23;0.20;;;0.20;;
21289;SDS011;10804;48.988;2.408;2023-03-01T07:51:52;0.20;;;0.20;;
21289;SDS011;10804;48.988;2.408;2023-03-01T07:54:19;0.20;;;0.20;;
21289;SDS011;10804;48.988;2.408;2023-03-01T07:56:46;0.20;;;0.20;;
21289;SDS011;10804;48.988;2.408;2023-03-01T07:59:14;0.20;;;0.20;;
21289;SDS011;10804;48.988;2.408;2023-03-01T08:01:41;0.20;;;0.20;;
21289;SDS011;10804;48.988;2.408;2023-03-01T08:04:08;0.20;;;0.20;;
21289;SDS011;10804;48.988;2.408;2023-03-01T08:06:37;0.20;;;0.20;;
21289;SDS011;10804;48.988;2.408;2023-03-01T08:09:06;0.20;;;0.20;;
21289;SDS011;10804;48.988;2.408;2023-03-01T08:11:34;0.20;;;0.20;;
21289;SDS011;10804;48.988;2.408;2023-03-01T08:14:01;0.20;;;0.20;;
21289;SDS011;10804;48.988;2.408;2023-03-01T08:16:29;0.20;;;0.20;;
21289;SDS011;10804;48.988;2.408;2023-03-01T08:18:56;0.30;;;0.30;;
21289;SDS011;10804;48.988;2.408;2023-03-01T08:21:27;0.20;;;0.20;;
21289;SDS011;10804;48.988;2.408;2023-03-01T08:23:55;0.20;;;0.20;;
21289;SDS011;10804;48.988;2.408;2023-03-01T08:26:23;0.20;;;0.20;;
21289;SDS011;10804;48.988;2.408;2023-03-01T08:28:50;0.20;;;0.20;;
21289;SDS011;10804;48.988;2.408;2023-03-01T08:31:18;0.20;;;0.20;;
21289;SDS011;10804;48.988;2.408;2023-03-01T08:33:48;0.20;;;0.20;;
21289;SDS011;10804;48.988;2.408;2023-03-01T08:36:20;0.20;;;0.20;;
21289;SDS011;10804;48.988;2.408;2023-03-01T08:38:49;0.20;;;0.20;;
21289;SDS011;10804;48.988;2.408;2023-03-01T08:41:20;0.20;;;0.20;;
21289;SDS011;10804;48.988;2.408;2023-03-01T08:43:47;0.20;;;0.20;;
21289;SDS011;10804;48.988;2.408;2023-03-01T08:46:15;0.20;;;0.20;;
21289;SDS011;10804;48.988;2.408;2023-03-01T08:48:42;0.20;;;0.20;;
21289;SDS011;10804;48.988;2.408;2023-03-01T08:51:10;0.20;;;0.20;;
21289;SDS011;10804;48.988;2.408;2023-03-01T08:53:39;0.20;;;0.20;;
21289;SDS011;10804;48.988;2.408;2023-03-01T08:56:07;0.20;;;0.20;;
21289;SDS011;10804;48.988;2.408;2023-03-01T08:58:36;0.20;;;0.20;;
21289;SDS011;10804;48.988;2.408;2023-03-01T09:01:06;0.20;;;0.20;;
21289;SDS011;10804;48.988;2.408;2023-03-01T09:03:34;0.20;;;0.20;;
21289;SDS011;10804;48.988;2.408;2023-03-01T09:06:01;0.20;;;0.20;;
21289;SDS011;10804;48.988;2.408;2023-03-01T09:08:30;0.20;;;0.20;;
21289;SDS011;10804;48.988;2.408;2023-03-01T09:11:01;0.20;;;0.20;;
21289;SDS011;10804;48.988;2.408;2023-03-01T09:13:29;0.20;;;0.20;;
21289;SDS011;10804;48.988;2.408;2023-03-01T09:16:00;0.20;;;0.20;;
21289;SDS011;10804;48.988;2.408;2023-03-01T09:18:29;0.20;;;0.20;;
21289;SDS011;10804;48.988;2.408;2023-03-01T09:21:00;0.20;;;0.20;;
21289;SDS011;10804;48.988;2.408;2023-03-01T09:23:28;0.20;;;0.20;;
21289;SDS011;10804;48.988;2.408;2023-03-01T09:25:55;0.20;;;0.20;;
21289;SDS011;10804;48.988;2.408;2023-03-01T09:28:22;0.20;;;0.20;;
21289;SDS011;10804;48.988;2.408;2023-03-01T09:30:50;0.20;;;0.20;;
21289;SDS011;10804;48.988;2.408;2023-03-01T09:33:21;0.20;;;0.20;;
21289;SDS011;10804;48.988;2.408;2023-03-01T09:35:48;0.20;;;0.20;;
21289;SDS011;10804;48.988;2.408;2023-03-01T09:38:15;0.20;;;0.20;;
21289;SDS011;10804;48.988;2.408;2023-03-01T09:40:43;0.20;;;0.20;;
21289;SDS011;10804;48.988;2.408;2023-03-01T09:43:15;0.20;;;0.20;;
21289;SDS011;10804;48.988;2.408;2023-03-01T09:45:48;0.20;;;0.20;;
21289;SDS011;10804;48.988;2.408;2023-03-01T09:48:23;0.20;;;0.20;;
21289;SDS011;10804;48.988;2.408;2023-03-01T09:50:53;0.20;;;0.20;;
21289;SDS011;10804;48.988;2.408;2023-03-01T09:53:21;0.20;;;0.20;;
21289;SDS011;10804;48.988;2.408;2023-03-01T09:55:54;0.20;;;0.20;;
21289;SDS011;10804;48.988;2.408;2023-03-01T09:58:31;0.20;;;0.20;;
21289;SDS011;10804;48.988;2.408;2023-03-01T10:01:10;0.10;;;0.10;;
21289;SDS011;10804;48.988;2.408;2023-03-01T10:03:55;0.20;;;0.20;;
21289;SDS011;10804;48.988;2.408;2023-03-01T10:06:32;0.10;;;0.10;;
21289;SDS011;10804;48.988;2.408;2023-03-01T10:09:00;0.20;;;0.20;;
21289;SDS011;10804;48.988;2.408;2023-03-01T10:11:32;0.20;;;0.20;;
21289;SDS011;10804;48.988;2.408;2023-03-01T10:14:04;0.20;;;0.20;;
21289;SDS011;10804;48.988;2.408;2023-03-01T10:16:40;0.13;;;0.13;;
21289;SDS011;10804;48.988;2.408;2023-03-01T10:19:17;0.20;;;0.20;;
21289;SDS011;10804;48.988;2.408;2023-03-01T10:21:49;0.10;;;0.10;;
21289;SDS011;10804;48.988;2.408;2023-03-01T10:24:18;0.20;;;0.20;;
21289;SDS011;10804;48.988;2.408;2023-03-01T10:26:48;0.20;;;0.20;;
21289;SDS011;10804;48.988;2.408;2023-03-01T10:29:23;0.20;;;0.20;;
21289;SDS011;10804;48.988;2.408;2023-03-01T10:31:57;0.10;;;0.10;;
21289;SDS011;10804;48.988;2.408;2023-03-01T10:34:28;0.20;;;0.20;;
21289;SDS011;10804;48.988;2.408;2023-03-01T10:36:57;0.17;;;0.17;;
21289;SDS011;10804;48.988;2.408;2023-03-01T10:39:28;0.17;;;0.17;;
21289;SDS011;10804;48.988;2.408;2023-03-01T10:41:57;0.20;;;0.20;;
21289;SDS011;10804;48.988;2.408;2023-03-01T10:47:18;0.20;;;0.20;;
21289;SDS011;10804;48.988;2.408;2023-03-01T10:49:56;0.10;;;0.10;;
21289;SDS011;10804;48.988;2.408;2023-03-01T10:52:26;0.10;;;0.10;;
21289;SDS011;10804;48.988;2.408;2023-03-01T10:54:56;0.20;;;0.20;;
21289;SDS011;10804;48.988;2.408;2023-03-01T10:57:27;0.10;;;0.10;;
21289;SDS011;10804;48.988;2.408;2023-03-01T11:00:01;0.20;;;0.20;;
21289;SDS011;10804;48.988;2.408;2023-03-01T11:02:42;0.10;;;0.10;;
21289;SDS011;10804;48.988;2.408;2023-03-01T11:05:17;0.20;;;0.20;;
21289;SDS011;10804;48.988;2.408;2023-03-01T11:07:51;0.10;;;0.10;;
21289;SDS011;10804;48.988;2.408;2023-03-01T11:10:21;0.20;;;0.20;;
21289;SDS011;10804;48.988;2.408;2023-03-01T11:12:50;0.10;;;0.10;;
21289;SDS011;10804;48.988;2.408;2023-03-01T11:15:20;0.10;;;0.10;;
21289;SDS011;10804;48.988;2.408;2023-03-01T11:17:53;0.10;;;0.10;;
21289;SDS011;10804;48.988;2.408;2023-03-01T11:20:30;0.20;;;0.20;;
21289;SDS011;10804;48.988;2.408;2023-03-01T11:23:01;0.10;;;0.10;;
21289;SDS011;10804;48.988;2.408;2023-03-01T11:25:33;0.10;;;0.10;;
21289;SDS011;10804;48.988;2.408;2023-03-01T11:28:04;0.10;;;0.10;;
21289;SDS011;10804;48.988;2.408;2023-03-01T11:30:34;0.20;;;0.20;;
21289;SDS011;10804;48.988;2.408;2023-03-01T11:33:11;0.17;;;0.17;;
21289;SDS011;10804;48.988;2.408;2023-03-01T11:35:47;0.10;;;0.10;;
21289;SDS011;10804;48.988;2.408;2023-03-01T11:38:21;0.20;;;0.20;;
21289;SDS011;10804;48.988;2.408;2023-03-01T11:40:52;0.10;;;0.10;;
21289;SDS011;10804;48.988;2.408;2023-03-01T11:43:27;0.10;;;0.10;;
21289;SDS011;10804;48.988;2.408;2023-03-01T11:49:01;0.20;;;0.20;;
21289;SDS011;10804;48.988;2.408;2023-03-01T11:51:44;0.10;;;0.10;;
21289;SDS011;10804;48.988;2.408;2023-03-01T11:54:26;0.20;;;0.20;;
21289;SDS011;10804;48.988;2.408;2023-03-01T11:57:03;0.10;;;0.10;;
21289;SDS011;10804;48.988;2.408;2023-03-01T11:59:44;0.10;;;0.10;;
21289;SDS011;10804;48.988;2.408;2023-03-01T12:02:40;0.10;;;0.10;;
21289;SDS011;10804;48.988;2.408;2023-03-01T12:05:35;0.10;;;0.10;;
21289;SDS011;10804;48.988;2.408;2023-03-01T12:08:17;0.10;;;0.10;;
21289;SDS011;10804;48.988;2.408;2023-03-01T12:10:52;0.10;;;0.10;;
21289;SDS011;10804;48.988;2.408;2023-03-01T12:16:29;0.10;;;0.10;;
21289;SDS011;10804;48.988;2.408;2023-03-01T12:19:14;0.10;;;0.10;;
21289;SDS011;10804;48.988;2.408;2023-03-01T12:21:54;0.10;;;0.10;;
21289;SDS011;10804;48.988;2.408;2023-03-01T12:24:41;0.20;;;0.20;;
21289;SDS011;10804;48.988;2.408;2023-03-01T12:27:27;0.10;;;0.10;;
21289;SDS011;10804;48.988;2.408;2023-03-01T12:30:15;0.10;;;0.10;;
21289;SDS011;10804;48.988;2.408;2023-03-01T12:32:55;0.10;;;0.10;;
21289;SDS011;10804;48.988;2.408;2023-03-01T12:35:48;0.10;;;0.10;;
21289;SDS011;10804;48.988;2.408;2023-03-01T12:38:37;0.10;;;0.10;;
21289;SDS011;10804;48.988;2.408;2023-03-01T12:41:13;0.10;;;0.10;;
21289;SDS011;10804;48.988;2.408;2023-03-01T12:43:51;0.10;;;0.10;;
21289;SDS011;10804;48.988;2.408;2023-03-01T12:46:31;0.10;;;0.10;;
21289;SDS011;10804;48.988;2.408;2023-03-01T12:49:19;0.10;;;0.10;;
21289;SDS011;10804;48.988;2.408;2023-03-01T12:51:54;0.10;;;0.10;;
21289;SDS011;10804;48.988;2.408;2023-03-01T12:54:26;0.10;;;0.10;;
21289;SDS011;10804;48.988;2.408;2023-03-01T12:56:59;0.10;;;0.10;;
21289;SDS011;10804;48.988;2.408;2023-03-01T12:59:34;0.10;;;0.10;;
21289;SDS011;10804;48.988;2.408;2023-03-01T13:02:12;0.10;;;0.10;;
21289;SDS011;10804;48.988;2.408;2023-03-01T13:04:59;0.10;;;0.10;;
21289;SDS011;10804;48.988;2.408;2023-03-01T13:07:35;0.10;;;0.10;;
21289;SDS011;10804;48.988;2.408;2023-03-01T13:10:10;0.10;;;0.10;;
21289;SDS011;10804;48.988;2.408;2023-03-01T13:12:51;0.10;;;0.10;;
21289;SDS011;10804;48.988;2.408;2023-03-01T13:15:27;0.10;;;0.10;;
21289;SDS011;10804;48.988;2.408;2023-03-01T13:17:57;0.10;;;0.10;;
21289;SDS011;10804;48.988;2.408;2023-03-01T13:20:27;0.10;;;0.10;;
21289;SDS011;10804;48.988;2.408;2023-03-01T13:23:02;0.10;;;0.10;;
21289;SDS011;10804;48.988;2.408;2023-03-01T13:25:32;0.10;;;0.10;;
21289;SDS011;10804;48.988;2.408;2023-03-01T13:31:10;0.10;;;0.10;;
21289;SDS011;10804;48.988;2.408;2023-03-01T13:33:55;0.10;;;0.10;;
21289;SDS011;10804;48.988;2.408;2023-03-01T13:39:27;0.10;;;0.10;;
21289;SDS011;10804;48.988;2.408;2023-03-01T13:41:57;0.10;;;0.10;;
21289;SDS011;10804;48.988;2.408;2023-03-01T13:44:30;0.10;;;0.10;;
21289;SDS011;10804;48.988;2.408;2023-03-01T13:47:07;0.10;;;0.10;;
21289;SDS011;10804;48.988;2.408;2023-03-01T13:49:44;0.10;;;0.10;;
21289;SDS011;10804;48.988;2.408;2023-03-01T13:52:30;0.00;;;0.00;;
21289;SDS011;10804;48.988;2.408;2023-03-01T13:55:03;0.10;;;0.10;;
21289;SDS011;10804;48.988;2.408;2023-03-01T13:57:33;0.00;;;0.00;;
21289;SDS011;10804;48.988;2.408;2023-03-01T14:00:05;0.10;;;0.10;;
21289;SDS011;10804;48.988;2.408;2023-03-01T14:02:34;0.10;;;0.10;;
21289;SDS011;10804;48.988;2.408;2023-03-01T14:05:03;0.10;;;0.10;;
21289;SDS011;10804;48.988;2.408;2023-03-01T14:07:30;0.10;;;0.10;;
21289;SDS011;10804;48.988;2.408;2023-03-01T14:09:58;0.10;;;0.10;;
21289;SDS011;10804;48.988;2.408;2023-03-01T14:12:38;0.10;;;0.10;;
21289;SDS011;10804;48.988;2.408;2023-03-01T14:15:14;0.10;;;0.10;;
21289;SDS011;10804;48.988;2.408;2023-03-01T14:18:03;0.00;;;0.00;;
21289;SDS011;10804;48.988;2.408;2023-03-01T14:20:39;0.10;;;0.10;;
21289;SDS011;10804;48.988;2.408;2023-03-01T14:23:09;0.00;;;0.00;;
21289;SDS011;10804;48.988;2.408;2023-03-01T14:25:38;0.00;;;0.00;;
21289;SDS011;10804;48.988;2.408;2023-03-01T14:28:14;0.10;;;0.10;;
21289;SDS011;10804;48.988;2.408;2023-03-01T14:30:45;0.00;;;0.00;;
21289;SDS011;10804;48.988;2.408;2023-03-01T14:33:21;0.00;;;0.00;;
21289;SDS011;10804;48.988;2.408;2023-03-01T14:35:54;0.03;;;0.03;;
21289;SDS011;10804;48.988;2.408;2023-03-01T14:38:27;0.00;;;0.00;;
21289;SDS011;10804;48.988;2.408;2023-03-01T14:40:58;0.00;;;0.00;;
21289;SDS011;10804;48.988;2.408;2023-03-01T14:43:28;0.00;;;0.00;;
21289;SDS011;10804;48.988;2.408;2023-03-01T14:45:56;0.00;;;0.00;;
21289;SDS011;10804;48.988;2.408;2023-03-01T14:48:25;0.03;;;0.03;;
21289;SDS011;10804;48.988;2.408;2023-03-01T14:50:55;0.00;;;0.00;;
21289;SDS011;10804;48.988;2.408;2023-03-01T14:53:24;0.10;;;0.10;;
21289;SDS011;10804;48.988;2.408;2023-03-01T14:55:54;0.00;;;0.00;;
21289;SDS011;10804;48.988;2.408;2023-03-01T14:58:23;0.10;;;0.10;;
21289;SDS011;10804;48.988;2.408;2023-03-01T15:00:52;0.03;;;0.03;;
21289;SDS011;10804;48.988;2.408;2023-03-01T15:03:25;0.08;;;0.08;;
21289;SDS011;10804;48.988;2.408;2023-03-01T15:05:57;0.00;;;0.00;;
21289;SDS011;10804;48.988;2.408;2023-03-01T15:08:25;0.05;;;0.05;;
21289;SDS011;10804;48.988;2.408;2023-03-01T15:10:59;0.03;;;0.03;;
21289;SDS011;10804;48.988;2.408;2023-03-01T15:13:29;0.10;;;0.10;;
21289;SDS011;10804;48.988;2.408;2023-03-01T15:16:05;0.10;;;0.10;;
21289;SDS011;10804;48.988;2.408;2023-03-01T15:18:37;0.00;;;0.00;;
21289;SDS011;10804;48.988;2.408;2023-03-01T15:21:14;0.10;;;0.10;;
21289;SDS011;10804;48.988;2.408;2023-03-01T15:23:47;0.00;;;0.00;;
21289;SDS011;10804;48.988;2.408;2023-03-01T15:26:23;0.10;;;0.10;;